Campbell Island, Canada
Current Conditions -  °F | °C
As of 9:10 AM on Tuesday 21 Oct 2014 (Local Time) from CBBC Reporting Station
Overcast Overcast  
Wind Chill: 52°   Ceiling: 4700
Heat Index: 52°   Visibility: 9mi
Dew Point: 46°   Wind: 25mph
Humidity: 82%   Direction: 160°SSE
Pressure: 29.49"   Gusts: 36mph
Location:  52.16°N, 128.14°W
Report Text: CBBC 211610Z AUTO 16022G31KT 120V190 9SM FEW031 SCT040 BKN047 OVC060 11/08 A2949 RMK SLP987
Loading
Personal Weather Stations






























Interactive Weather Map
Tropical Storm Tracking
New forecast layout! Learn more

10-Day Weather Forecast

Advertisements
Track Severe Weather on mobile